Etusivu
METAR-TAF:

METAR-TAF

Lentoasemat :

McGhee Tyson Airport

Knoxville, Tennessee, Yhdysvallat

Leveyspiiri: 35-49-05N, Pituuspiiri: 083-59-09W, korkeus merenpinnasta: 299 m

Tämänhetkinen sää

Tämä raportti tehtiin 58 minuuttia sitten, kello 15.53 UTC
Tuuli 4 kn pohjoisesta/koillisesta
Lämpötila 4°C
Kosteus 56%
Ilmanpaine 1032 hPa
Näkyvyys: 16.1 km
selkeää

METAR: KTYS 221553Z 03004KT 10SM CLR 04/M04 A3048 RMK AO2 SLP326 T00441039 $

Aika: 11:51 (16:51 UTC)

Sääennuste

Tämä raportti tehtiin 5 tuntia ja 31 minuuttia sitten, kello 11.20 UTC
Ennuste voimassa 22. päivästä klo 12 UTC - 23. päivään klo 12 UTC
Tuuli kn pohjoisesta
Näkyvyys: 10 km
selkeää
From 22. päivästä klo 1700 UTC
Tuuli 2 kn lännestä/lounaasta
Näkyvyys: 10 km
selkeää

TAF: KTYS 221120Z 2212/2312 00000KT P6SM SKC FM221700 25002KT P6SM SKC

Säähavainnot ja -ennusteet yli 4000 lentoasemalta (METAR- ja TAF-raportit).

Käytössä olevat sääasemat on merkitty karttaan keltaisilla ja punaisilla pisteillä.

Aseta hiiri pisteen päälle nähdäksesi sääaseman nimen.

Klikkaa sitten nähdäksesi säähavainnot ja -ennusteet.

Kartan vaihtaminen: klikkaa mustalla rastilla varustettuja vihreitä pisteitä, niin voit zoomata sisään; viivalla varustettua vihreää pistettä, niin voit zoomata ulos tai vihreitä nuolia, niin pääset viereisille kartoille.


METAR-TAF: